Stouffville, Canada
Current Conditions -  °F | °C
As of 10:00 PM on Saturday 22 Nov 2014 (Local Time) from CYKZ Reporting Station
Light Rain Light Rain  
Wind Chill: 36°   Ceiling: 900
Heat Index: 39°   Visibility: 5mi
Dew Point: 39°   Wind: 5mph
Humidity: 100%   Direction: 230°SW
Pressure: 29.92"   Gusts: NA
Location:  43.97°N, 79.25°W
Report Text: CYKZ 230300Z 23004KT 5SM -RA BR OVC009 04/04 A2992 RMK SC8SLP140
Loading
Personal Weather Stations






























Interactive Weather Map New forecast layout! Learn more

10-Day Weather Forecast

Advertisements
Track Severe Weather on mobile